sensor_id;sensor_type;location;lat;lon;timestamp;pressure;altitude;pressure_sealevel;temperature;humidity
46045;BME280;31781;54.094;13.428;2023-05-19T00:00:33;103058.44;;;9.64;62.44
46045;BME280;31781;54.094;13.428;2023-05-19T00:02:35;103066.88;;;9.61;61.43
46045;BME280;31781;54.094;13.428;2023-05-19T00:04:38;103061.59;;;9.59;61.45
46045;BME280;31781;54.094;13.428;2023-05-19T00:06:40;103071.91;;;9.56;61.64
46045;BME280;31781;54.094;13.428;2023-05-19T00:08:42;103069.50;;;9.53;61.84
46045;BME280;31781;54.094;13.428;2023-05-19T00:10:46;103062.47;;;9.50;61.89
46045;BME280;31781;54.094;13.428;2023-05-19T00:12:48;103071.06;;;9.46;61.84
46045;BME280;31781;54.094;13.428;2023-05-19T00:14:51;103071.22;;;9.44;62.33
46045;BME280;31781;54.094;13.428;2023-05-19T00:16:53;103064.22;;;9.42;62.77
46045;BME280;31781;54.094;13.428;2023-05-19T00:18:56;103068.06;;;9.39;62.57
46045;BME280;31781;54.094;13.428;2023-05-19T00:20:58;103066.50;;;9.37;62.49
46045;BME280;31781;54.094;13.428;2023-05-19T00:22:59;103065.78;;;9.35;62.01
46045;BME280;31781;54.094;13.428;2023-05-19T00:25:01;103070.50;;;9.33;61.33
46045;BME280;31781;54.094;13.428;2023-05-19T00:27:05;103064.38;;;9.31;61.94
46045;BME280;31781;54.094;13.428;2023-05-19T00:29:06;103067.34;;;9.27;61.51
46045;BME280;31781;54.094;13.428;2023-05-19T00:31:08;103062.06;;;9.26;61.56
46045;BME280;31781;54.094;13.428;2023-05-19T00:33:10;103056.94;;;9.23;61.87
46045;BME280;31781;54.094;13.428;2023-05-19T00:35:12;103056.22;;;9.21;61.86
46045;BME280;31781;54.094;13.428;2023-05-19T00:37:14;103050.06;;;9.19;61.56
46045;BME280;31781;54.094;13.428;2023-05-19T00:39:15;103044.94;;;9.16;60.94
46045;BME280;31781;54.094;13.428;2023-05-19T00:41:17;103044.22;;;9.14;60.82
46045;BME280;31781;54.094;13.428;2023-05-19T00:43:20;103043.63;;;9.10;60.73
46045;BME280;31781;54.094;13.428;2023-05-19T00:45:23;103037.50;;;9.08;61.00
46045;BME280;31781;54.094;13.428;2023-05-19T00:47:26;103040.34;;;9.07;62.17
46045;BME280;31781;54.094;13.428;2023-05-19T00:49:27;103041.50;;;9.04;62.32
46045;BME280;31781;54.094;13.428;2023-05-19T00:51:29;103038.06;;;9.02;62.34
46045;BME280;31781;54.094;13.428;2023-05-19T00:53:32;103048.34;;;8.99;61.82
46045;BME280;31781;54.094;13.428;2023-05-19T00:55:36;103046.66;;;8.98;61.28
46045;BME280;31781;54.094;13.428;2023-05-19T00:57:38;103050.66;;;8.94;61.60
46045;BME280;31781;54.094;13.428;2023-05-19T00:59:41;103042.78;;;8.91;61.32
46045;BME280;31781;54.094;13.428;2023-05-19T01:01:44;103042.19;;;8.87;61.60
46045;BME280;31781;54.094;13.428;2023-05-19T01:03:46;103040.63;;;8.85;61.75
46045;BME280;31781;54.094;13.428;2023-05-19T01:05:51;103040.78;;;8.83;61.49
46045;BME280;31781;54.094;13.428;2023-05-19T01:07:54;103033.94;;;8.79;61.05
46045;BME280;31781;54.094;13.428;2023-05-19T01:09:56;103038.63;;;8.77;61.07
46045;BME280;31781;54.094;13.428;2023-05-19T01:11:58;103032.50;;;8.75;61.41
46045;BME280;31781;54.094;13.428;2023-05-19T01:14:01;103040.94;;;8.72;61.33
46045;BME280;31781;54.094;13.428;2023-05-19T01:16:07;103038.34;;;8.70;61.41
46045;BME280;31781;54.094;13.428;2023-05-19T01:18:13;103028.63;;;8.68;61.11
46045;BME280;31781;54.094;13.428;2023-05-19T01:20:19;103031.47;;;8.66;62.42
46045;BME280;31781;54.094;13.428;2023-05-19T01:22:36;103036.03;;;8.66;60.95
46045;BME280;31781;54.094;13.428;2023-05-19T01:24:57;103031.59;;;8.65;60.92
46045;BME280;31781;54.094;13.428;2023-05-19T01:27:23;103037.19;;;8.63;60.59
46045;BME280;31781;54.094;13.428;2023-05-19T01:29:41;103041.06;;;8.61;60.71
46045;BME280;31781;54.094;13.428;2023-05-19T01:31:54;103038.59;;;8.58;61.97
46045;BME280;31781;54.094;13.428;2023-05-19T01:33:59;103035.31;;;8.54;62.64
46045;BME280;31781;54.094;13.428;2023-05-19T01:36:03;103037.44;;;8.51;61.81
46045;BME280;31781;54.094;13.428;2023-05-19T01:38:11;103038.59;;;8.48;62.30
46045;BME280;31781;54.094;13.428;2023-05-19T01:40:14;103035.31;;;8.45;62.71
46045;BME280;31781;54.094;13.428;2023-05-19T01:42:16;103037.28;;;8.43;62.58
46045;BME280;31781;54.094;13.428;2023-05-19T01:44:18;103034.84;;;8.40;62.12
46045;BME280;31781;54.094;13.428;2023-05-19T01:46:20;103040.44;;;8.38;62.40
46045;BME280;31781;54.094;13.428;2023-05-19T01:48:25;103040.56;;;8.37;62.39
46045;BME280;31781;54.094;13.428;2023-05-19T01:50:27;103039.84;;;8.35;62.50
46045;BME280;31781;54.094;13.428;2023-05-19T01:52:30;103046.38;;;8.32;62.68
46045;BME280;31781;54.094;13.428;2023-05-19T01:54:32;103044.69;;;8.31;63.15
46045;BME280;31781;54.094;13.428;2023-05-19T01:56:41;103050.25;;;8.29;61.70
46045;BME280;31781;54.094;13.428;2023-05-19T01:58:52;103045.94;;;8.27;62.47
46045;BME280;31781;54.094;13.428;2023-05-19T02:01:03;103051.47;;;8.25;62.19
46045;BME280;31781;54.094;13.428;2023-05-19T02:03:17;103050.63;;;8.25;61.93
46045;BME280;31781;54.094;13.428;2023-05-19T02:05:29;103051.75;;;8.22;62.53
46045;BME280;31781;54.094;13.428;2023-05-19T02:07:38;103049.19;;;8.21;62.06
46045;BME280;31781;54.094;13.428;2023-05-19T02:09:50;103050.19;;;8.20;61.16
46045;BME280;31781;54.094;13.428;2023-05-19T02:11:54;103055.16;;;8.15;62.48
46045;BME280;31781;54.094;13.428;2023-05-19T02:14:02;103055.16;;;8.15;62.85
46045;BME280;31781;54.094;13.428;2023-05-19T02:16:05;103053.59;;;8.12;63.86
46045;BME280;31781;54.094;13.428;2023-05-19T02:18:09;103055.56;;;8.10;63.47
46045;BME280;31781;54.094;13.428;2023-05-19T02:20:12;103046.72;;;8.08;63.98
46045;BME280;31781;54.094;13.428;2023-05-19T02:22:15;103050.41;;;8.07;63.09
46045;BME280;31781;54.094;13.428;2023-05-19T02:24:18;103050.53;;;8.06;63.54
46045;BME280;31781;54.094;13.428;2023-05-19T02:26:19;103044.28;;;8.05;64.44
46045;BME280;31781;54.094;13.428;2023-05-19T02:28:21;103055.13;;;8.05;64.01
46045;BME280;31781;54.094;13.428;2023-05-19T02:30:23;103048.97;;;8.03;64.53
46045;BME280;31781;54.094;13.428;2023-05-19T02:32:25;103049.97;;;8.02;64.59
46045;BME280;31781;54.094;13.428;2023-05-19T02:34:27;103051.84;;;8.02;63.76
46045;BME280;31781;54.094;13.428;2023-05-19T02:36:33;103053.81;;;8.00;63.83
46045;BME280;31781;54.094;13.428;2023-05-19T02:38:36;103053.09;;;7.98;63.42
46045;BME280;31781;54.094;13.428;2023-05-19T02:40:38;103054.09;;;7.97;63.26
46045;BME280;31781;54.094;13.428;2023-05-19T02:42:40;103055.22;;;7.94;63.40
46045;BME280;31781;54.094;13.428;2023-05-19T02:44:42;103052.63;;;7.93;62.52
46045;BME280;31781;54.094;13.428;2023-05-19T02:46:43;103050.91;;;7.92;63.09
46045;BME280;31781;54.094;13.428;2023-05-19T02:48:45;103046.63;;;7.89;62.94
46045;BME280;31781;54.094;13.428;2023-05-19T02:50:47;103047.63;;;7.88;63.26
46045;BME280;31781;54.094;13.428;2023-05-19T02:52:49;103046.06;;;7.86;62.71
46045;BME280;31781;54.094;13.428;2023-05-19T02:54:52;103047.03;;;7.84;63.40
46045;BME280;31781;54.094;13.428;2023-05-19T02:56:54;103048.03;;;7.83;64.13
46045;BME280;31781;54.094;13.428;2023-05-19T02:58:56;103042.75;;;7.82;64.39
46045;BME280;31781;54.094;13.428;2023-05-19T03:00:58;103040.16;;;7.80;63.74
46045;BME280;31781;54.094;13.428;2023-05-19T03:02:59;103047.59;;;7.78;63.95
46045;BME280;31781;54.094;13.428;2023-05-19T03:05:01;103041.41;;;7.76;63.90
46045;BME280;31781;54.094;13.428;2023-05-19T03:07:03;103046.13;;;7.74;64.12
46045;BME280;31781;54.094;13.428;2023-05-19T03:09:05;103047.13;;;7.73;64.39
46045;BME280;31781;54.094;13.428;2023-05-19T03:11:08;103041.84;;;7.72;64.57
46045;BME280;31781;54.094;13.428;2023-05-19T03:13:10;103041.13;;;7.70;63.74
46045;BME280;31781;54.094;13.428;2023-05-19T03:15:12;103050.22;;;7.69;63.50
46045;BME280;31781;54.094;13.428;2023-05-19T03:17:14;103044.97;;;7.67;63.45
46045;BME280;31781;54.094;13.428;2023-05-19T03:19:16;103050.38;;;7.67;63.82
46045;BME280;31781;54.094;13.428;2023-05-19T03:21:18;103048.66;;;7.66;63.42
46045;BME280;31781;54.094;13.428;2023-05-19T03:23:20;103049.63;;;7.65;63.82
46045;BME280;31781;54.094;13.428;2023-05-19T03:25:22;103053.34;;;7.64;63.15
46045;BME280;31781;54.094;13.428;2023-05-19T03:27:25;103047.06;;;7.64;63.27
46045;BME280;31781;54.094;13.428;2023-05-19T03:29:27;103049.78;;;7.64;62.96
46045;BME280;31781;54.094;13.428;2023-05-19T03:31:29;103052.63;;;7.62;63.13
46045;BME280;31781;54.094;13.428;2023-05-19T03:33:31;103049.91;;;7.62;63.18
46045;BME280;31781;54.094;13.428;2023-05-19T03:35:32;103054.47;;;7.62;63.72
46045;BME280;31781;54.094;13.428;2023-05-19T03:37:34;103053.59;;;7.61;64.02
46045;BME280;31781;54.094;13.428;2023-05-19T03:39:36;103053.59;;;7.61;63.51
46045;BME280;31781;54.094;13.428;2023-05-19T03:41:38;103057.19;;;7.62;63.34
46045;BME280;31781;54.094;13.428;2023-05-19T03:43:41;103053.47;;;7.63;63.60
46045;BME280;31781;54.094;13.428;2023-05-19T03:45:43;103062.34;;;7.65;63.63
46045;BME280;31781;54.094;13.428;2023-05-19T03:47:45;103060.00;;;7.81;63.93
46045;BME280;31781;54.094;13.428;2023-05-19T03:49:47;103061.34;;;7.96;63.45
46045;BME280;31781;54.094;13.428;2023-05-19T03:51:49;103064.94;;;7.97;63.91
46045;BME280;31781;54.094;13.428;2023-05-19T03:53:51;103063.22;;;7.96;64.15
46045;BME280;31781;54.094;13.428;2023-05-19T03:55:53;103065.78;;;7.97;63.71
46045;BME280;31781;54.094;13.428;2023-05-19T03:57:54;103069.22;;;7.99;64.25
46045;BME280;31781;54.094;13.428;2023-05-19T03:59:58;103064.38;;;8.03;64.99
46045;BME280;31781;54.094;13.428;2023-05-19T04:02:00;103067.81;;;8.05;65.08
46045;BME280;31781;54.094;13.428;2023-05-19T04:04:02;103063.13;;;8.07;65.56
46045;BME280;31781;54.094;13.428;2023-05-19T04:06:04;103072.81;;;8.09;65.20
46045;BME280;31781;54.094;13.428;2023-05-19T04:08:06;103069.97;;;8.11;65.62
46045;BME280;31781;54.094;13.428;2023-05-19T04:10:08;103065.31;;;8.13;65.64
46045;BME280;31781;54.094;13.428;2023-05-19T04:12:10;103071.44;;;8.15;66.17
46045;BME280;31781;54.094;13.428;2023-05-19T04:14:11;103069.31;;;8.18;65.41
46045;BME280;31781;54.094;13.428;2023-05-19T04:16:15;103063.59;;;8.21;66.01
46045;BME280;31781;54.094;13.428;2023-05-19T04:18:17;103064.91;;;8.27;67.08
46045;BME280;31781;54.094;13.428;2023-05-19T04:20:18;103066.41;;;8.31;67.48
46045;BME280;31781;54.094;13.428;2023-05-19T04:22:20;103063.25;;;8.36;67.03
46045;BME280;31781;54.094;13.428;2023-05-19T04:24:22;103061.69;;;8.43;68.53
46045;BME280;31781;54.094;13.428;2023-05-19T04:26:25;103058.44;;;8.49;68.74
46045;BME280;31781;54.094;13.428;2023-05-19T04:28:26;103059.59;;;8.56;69.68
46045;BME280;31781;54.094;13.428;2023-05-19T04:30:28;103056.31;;;8.62;69.73
46045;BME280;31781;54.094;13.428;2023-05-19T04:32:32;103056.34;;;8.71;70.48
46045;BME280;31781;54.094;13.428;2023-05-19T04:34:34;103052.06;;;8.78;71.64
46045;BME280;31781;54.094;13.428;2023-05-19T04:36:36;103055.78;;;8.87;71.69
46045;BME280;31781;54.094;13.428;2023-05-19T04:38:38;103050.38;;;8.97;71.98
46045;BME280;31781;54.094;13.428;2023-05-19T04:40:40;103050.53;;;9.05;71.80
46045;BME280;31781;54.094;13.428;2023-05-19T04:42:41;103051.50;;;9.13;72.50
46045;BME280;31781;54.094;13.428;2023-05-19T04:44:43;103056.94;;;9.23;72.58
46045;BME280;31781;54.094;13.428;2023-05-19T04:46:45;103055.94;;;9.34;73.58
46045;BME280;31781;54.094;13.428;2023-05-19T04:48:48;103059.63;;;9.42;73.98
46045;BME280;31781;54.094;13.428;2023-05-19T04:50:50;103054.19;;;9.52;73.85
46045;BME280;31781;54.094;13.428;2023-05-19T04:52:52;103052.28;;;9.62;74.50
46045;BME280;31781;54.094;13.428;2023-05-19T04:54:54;103052.28;;;9.71;74.38
46045;BME280;31781;54.094;13.428;2023-05-19T04:56:56;103054.97;;;9.81;75.02
46045;BME280;31781;54.094;13.428;2023-05-19T04:58:58;103049.34;;;9.92;74.68
46045;BME280;31781;54.094;13.428;2023-05-19T05:00:59;103052.88;;;10.02;74.71
46045;BME280;31781;54.094;13.428;2023-05-19T05:03:01;103050.13;;;10.12;74.15
46045;BME280;31781;54.094;13.428;2023-05-19T05:05:06;103044.53;;;10.23;73.93
46045;BME280;31781;54.094;13.428;2023-05-19T05:07:08;103045.47;;;10.32;74.91
46045;BME280;31781;54.094;13.428;2023-05-19T05:09:10;103050.88;;;10.41;75.04
46045;BME280;31781;54.094;13.428;2023-05-19T05:11:12;103053.38;;;10.52;74.91
46045;BME280;31781;54.094;13.428;2023-05-19T05:13:15;103053.16;;;10.63;74.73
46045;BME280;31781;54.094;13.428;2023-05-19T05:15:17;103043.19;;;10.72;73.72
46045;BME280;31781;54.094;13.428;2023-05-19T05:17:20;103044.88;;;10.83;73.50
46045;BME280;31781;54.094;13.428;2023-05-19T05:19:22;103043.78;;;10.93;73.99
46045;BME280;31781;54.094;13.428;2023-05-19T05:21:26;103040.97;;;11.03;73.30
46045;BME280;31781;54.094;13.428;2023-05-19T05:23:29;103046.16;;;11.14;72.87
46045;BME280;31781;54.094;13.428;2023-05-19T05:25:32;103046.94;;;11.24;73.21
46045;BME280;31781;54.094;13.428;2023-05-19T05:27:35;103044.13;;;11.34;72.54
46045;BME280;31781;54.094;13.428;2023-05-19T05:29:37;103045.75;;;11.44;72.05
46045;BME280;31781;54.094;13.428;2023-05-19T05:31:39;103042.91;;;11.54;71.35
46045;BME280;31781;54.094;13.428;2023-05-19T05:33:42;103045.56;;;11.63;70.90
46045;BME280;31781;54.094;13.428;2023-05-19T05:35:44;103041.00;;;11.72;71.16
46045;BME280;31781;54.094;13.428;2023-05-19T05:37:47;103035.63;;;11.80;70.33
46045;BME280;31781;54.094;13.428;2023-05-19T05:39:48;103036.34;;;11.90;70.38
46045;BME280;31781;54.094;13.428;2023-05-19T05:41:50;103034.53;;;11.99;70.80
46045;BME280;31781;54.094;13.428;2023-05-19T05:43:52;103040.72;;;12.09;69.55
46045;BME280;31781;54.094;13.428;2023-05-19T05:45:55;103046.06;;;12.18;69.43
46045;BME280;31781;54.094;13.428;2023-05-19T05:47:58;103036.00;;;12.27;68.70
46045;BME280;31781;54.094;13.428;2023-05-19T05:50:00;103038.63;;;12.37;68.75
46045;BME280;31781;54.094;13.428;2023-05-19T05:52:03;103044.78;;;12.47;67.48
46045;BME280;31781;54.094;13.428;2023-05-19T05:54:11;103037.16;;;12.58;67.10
46045;BME280;31781;54.094;13.428;2023-05-19T05:56:13;103033.59;;;12.66;66.78
46045;BME280;31781;54.094;13.428;2023-05-19T05:58:15;103037.03;;;12.76;66.09
46045;BME280;31781;54.094;13.428;2023-05-19T06:00:18;103028.69;;;12.86;65.93
46045;BME280;31781;54.094;13.428;2023-05-19T06:02:20;103029.38;;;12.96;65.90
46045;BME280;31781;54.094;13.428;2023-05-19T06:04:22;103034.50;;;13.07;65.88
46045;BME280;31781;54.094;13.428;2023-05-19T06:06:25;103035.94;;;13.19;65.53
46045;BME280;31781;54.094;13.428;2023-05-19T06:08:27;103032.00;;;13.30;63.51
46045;BME280;31781;54.094;13.428;2023-05-19T06:10:30;103034.19;;;13.42;63.13
46045;BME280;31781;54.094;13.428;2023-05-19T06:12:33;103034.69;;;13.54;62.42
46045;BME280;31781;54.094;13.428;2023-05-19T06:14:35;103036.03;;;13.66;61.51
46045;BME280;31781;54.094;13.428;2023-05-19T06:16:37;103032.94;;;13.77;60.75
46045;BME280;31781;54.094;13.428;2023-05-19T06:18:38;103028.13;;;13.87;60.03
46045;BME280;31781;54.094;13.428;2023-05-19T06:20:40;103030.66;;;13.97;59.55
46045;BME280;31781;54.094;13.428;2023-05-19T06:22:42;103034.56;;;14.10;60.13
46045;BME280;31781;54.094;13.428;2023-05-19T06:24:44;103032.44;;;14.21;58.38
46045;BME280;31781;54.094;13.428;2023-05-19T06:26:49;103036.34;;;14.34;57.67
46045;BME280;31781;54.094;13.428;2023-05-19T06:28:50;103018.88;;;14.43;56.82
46045;BME280;31781;54.094;13.428;2023-05-19T06:30:53;103035.91;;;14.53;56.83
46045;BME280;31781;54.094;13.428;2023-05-19T06:32:55;103027.50;;;14.63;56.12
46045;BME280;31781;54.094;13.428;2023-05-19T06:34:57;103031.72;;;14.74;56.36
46045;BME280;31781;54.094;13.428;2023-05-19T06:36:59;103035.06;;;14.84;55.41
46045;BME280;31781;54.094;13.428;2023-05-19T06:39:02;103032.91;;;14.94;55.41
46045;BME280;31781;54.094;13.428;2023-05-19T06:41:04;103024.47;;;15.03;55.60
46045;BME280;31781;54.094;13.428;2023-05-19T06:43:07;103027.97;;;15.12;55.51
46045;BME280;31781;54.094;13.428;2023-05-19T06:45:09;103021.59;;;15.20;55.40
46045;BME280;31781;54.094;13.428;2023-05-19T06:47:12;103026.44;;;15.32;55.37
46045;BME280;31781;54.094;13.428;2023-05-19T06:49:14;103026.00;;;15.43;54.31
46045;BME280;31781;54.094;13.428;2023-05-19T06:51:16;103031.94;;;15.55;53.79
46045;BME280;31781;54.094;13.428;2023-05-19T06:53:20;103026.84;;;15.67;53.38
46045;BME280;31781;54.094;13.428;2023-05-19T06:55:22;103026.56;;;15.76;52.53
46045;BME280;31781;54.094;13.428;2023-05-19T06:57:23;103022.50;;;15.87;52.48
46045;BME280;31781;54.094;13.428;2023-05-19T06:59:26;103021.84;;;15.99;52.55
46045;BME280;31781;54.094;13.428;2023-05-19T07:01:28;103016.72;;;16.11;52.51
46045;BME280;31781;54.094;13.428;2023-05-19T07:03:30;103018.59;;;16.25;52.18
46045;BME280;31781;54.094;13.428;2023-05-19T07:05:32;103024.06;;;16.40;51.48
46045;BME280;31781;54.094;13.428;2023-05-19T07:07:34;103024.44;;;16.51;51.27
46045;BME280;31781;54.094;13.428;2023-05-19T07:09:35;103020.81;;;16.66;51.02
46045;BME280;31781;54.094;13.428;2023-05-19T07:11:37;103018.44;;;16.77;50.49
46045;BME280;31781;54.094;13.428;2023-05-19T07:13:39;103026.97;;;16.89;49.96
46045;BME280;31781;54.094;13.428;2023-05-19T07:15:42;103025.88;;;17.04;49.64
46045;BME280;31781;54.094;13.428;2023-05-19T07:17:44;103027.06;;;17.17;49.38
46045;BME280;31781;54.094;13.428;2023-05-19T07:19:46;103028.69;;;17.32;49.07
46045;BME280;31781;54.094;13.428;2023-05-19T07:21:47;103024.16;;;17.46;48.00
46045;BME280;31781;54.094;13.428;2023-05-19T07:23:49;103027.03;;;17.59;48.06
46045;BME280;31781;54.094;13.428;2023-05-19T07:25:53;103024.38;;;17.72;47.87
46045;BME280;31781;54.094;13.428;2023-05-19T07:27:55;103017.91;;;17.86;47.65
46045;BME280;31781;54.094;13.428;2023-05-19T07:29:57;103023.09;;;18.03;46.71
46045;BME280;31781;54.094;13.428;2023-05-19T07:32:01;103020.22;;;18.17;47.54
46045;BME280;31781;54.094;13.428;2023-05-19T07:34:03;103020.94;;;18.32;46.58
46045;BME280;31781;54.094;13.428;2023-05-19T07:36:05;103019.25;;;18.44;46.78
46045;BME280;31781;54.094;13.428;2023-05-19T07:38:07;103020.41;;;18.57;45.97
46045;BME280;31781;54.094;13.428;2023-05-19T07:40:09;103016.84;;;18.69;44.67
46045;BME280;31781;54.094;13.428;2023-05-19T07:42:11;103017.72;;;18.83;44.69
46045;BME280;31781;54.094;13.428;2023-05-19T07:44:13;103019.00;;;18.93;43.75
46045;BME280;31781;54.094;13.428;2023-05-19T07:46:15;103024.13;;;19.03;44.08
46045;BME280;31781;54.094;13.428;2023-05-19T07:48:18;103014.59;;;19.12;43.83
46045;BME280;31781;54.094;13.428;2023-05-19T07:50:20;103015.88;;;19.23;43.46
46045;BME280;31781;54.094;13.428;2023-05-19T07:52:21;103014.19;;;19.35;43.42
46045;BME280;31781;54.094;13.428;2023-05-19T07:54:23;103011.66;;;19.47;43.43
46045;BME280;31781;54.094;13.428;2023-05-19T07:56:25;103015.25;;;19.60;43.24
46045;BME280;31781;54.094;13.428;2023-05-19T07:58:27;103015.22;;;19.73;42.94
46045;BME280;31781;54.094;13.428;2023-05-19T08:00:29;103018.19;;;19.85;41.84
46045;BME280;31781;54.094;13.428;2023-05-19T08:02:31;103015.41;;;19.98;41.82
46045;BME280;31781;54.094;13.428;2023-05-19T08:04:37;103012.38;;;20.13;43.13
46045;BME280;31781;54.094;13.428;2023-05-19T08:06:39;103018.53;;;20.28;41.49
46045;BME280;31781;54.094;13.428;2023-05-19T08:08:41;103010.16;;;20.41;41.33
46045;BME280;31781;54.094;13.428;2023-05-19T08:10:43;103010.94;;;20.55;41.10
46045;BME280;31781;54.094;13.428;2023-05-19T08:12:44;103007.47;;;20.66;40.80
46045;BME280;31781;54.094;13.428;2023-05-19T08:14:46;103003.19;;;20.76;40.70
46045;BME280;31781;54.094;13.428;2023-05-19T08:16:48;103009.47;;;20.90;40.91
46045;BME280;31781;54.094;13.428;2023-05-19T08:18:50;103007.72;;;21.02;42.30
46045;BME280;31781;54.094;13.428;2023-05-19T08:20:53;103009.53;;;21.15;41.94
46045;BME280;31781;54.094;13.428;2023-05-19T08:22:57;103004.97;;;21.27;42.79
46045;BME280;31781;54.094;13.428;2023-05-19T08:24:59;103003.19;;;21.39;42.55
46045;BME280;31781;54.094;13.428;2023-05-19T08:27:00;103010.50;;;21.52;42.27
46045;BME280;31781;54.094;13.428;2023-05-19T08:29:02;103007.84;;;21.63;42.12
46045;BME280;31781;54.094;13.428;2023-05-19T08:31:04;103007.56;;;21.71;41.34
46045;BME280;31781;54.094;13.428;2023-05-19T08:33:06;103002.31;;;21.81;41.60
46045;BME280;31781;54.094;13.428;2023-05-19T08:35:08;103009.91;;;21.93;41.87
46045;BME280;31781;54.094;13.428;2023-05-19T08:37:12;103001.91;;;22.03;41.99
46045;BME280;31781;54.094;13.428;2023-05-19T08:39:13;103006.06;;;22.12;42.18
46045;BME280;31781;54.094;13.428;2023-05-19T08:41:15;102997.84;;;22.23;41.24
46045;BME280;31781;54.094;13.428;2023-05-19T08:43:17;103000.53;;;22.30;41.26
46045;BME280;31781;54.094;13.428;2023-05-19T08:45:19;102991.03;;;22.38;41.67
46045;BME280;31781;54.094;13.428;2023-05-19T08:47:21;102994.56;;;22.45;41.36
46045;BME280;31781;54.094;13.428;2023-05-19T08:49:26;102988.91;;;22.51;42.65
46045;BME280;31781;54.094;13.428;2023-05-19T08:51:36;102994.00;;;22.54;42.42
46045;BME280;31781;54.094;13.428;2023-05-19T08:53:47;102986.91;;;22.58;42.14
46045;BME280;31781;54.094;13.428;2023-05-19T08:55:54;102994.06;;;22.66;41.77
46045;BME280;31781;54.094;13.428;2023-05-19T08:58:00;102981.22;;;22.71;41.04
46045;BME280;31781;54.094;13.428;2023-05-19T09:00:03;102990.03;;;22.80;41.77
46045;BME280;31781;54.094;13.428;2023-05-19T09:02:05;102990.53;;;22.89;40.84
46045;BME280;31781;54.094;13.428;2023-05-19T09:04:08;102979.09;;;22.97;41.02
46045;BME280;31781;54.094;13.428;2023-05-19T09:06:10;102982.41;;;23.05;41.11
46045;BME280;31781;54.094;13.428;2023-05-19T09:08:12;102977.31;;;23.14;40.52
46045;BME280;31781;54.094;13.428;2023-05-19T09:10:15;102981.09;;;23.19;40.16
46045;BME280;31781;54.094;13.428;2023-05-19T09:12:17;102976.25;;;23.26;40.72
46045;BME280;31781;54.094;13.428;2023-05-19T09:14:18;102977.84;;;23.34;40.11
46045;BME280;31781;54.094;13.428;2023-05-19T09:16:20;102976.41;;;23.43;39.93
46045;BME280;31781;54.094;13.428;2023-05-19T09:18:24;102978.00;;;23.51;39.69
46045;BME280;31781;54.094;13.428;2023-05-19T09:20:29;102971.00;;;23.60;40.13
46045;BME280;31781;54.094;13.428;2023-05-19T09:22:31;102973.41;;;23.68;40.65
46045;BME280;31781;54.094;13.428;2023-05-19T09:24:33;102972.56;;;23.79;39.59
46045;BME280;31781;54.094;13.428;2023-05-19T09:26:37;102973.00;;;23.88;39.74
46045;BME280;31781;54.094;13.428;2023-05-19T09:28:39;102975.19;;;23.97;38.47
46045;BME280;31781;54.094;13.428;2023-05-19T09:30:41;102973.13;;;24.04;38.52
46045;BME280;31781;54.094;13.428;2023-05-19T09:32:43;102968.50;;;24.10;37.44
46045;BME280;31781;54.094;13.428;2023-05-19T09:34:46;102982.56;;;24.15;37.69
46045;BME280;31781;54.094;13.428;2023-05-19T09:36:48;102972.97;;;24.22;38.23
46045;BME280;31781;54.094;13.428;2023-05-19T09:38:50;102974.25;;;24.32;37.44
46045;BME280;31781;54.094;13.428;2023-05-19T09:40:53;102985.28;;;24.38;37.08
46045;BME280;31781;54.094;13.428;2023-05-19T09:42:58;102980.16;;;24.47;36.70
46045;BME280;31781;54.094;13.428;2023-05-19T09:45:01;102978.56;;;24.51;34.23
46045;BME280;31781;54.094;13.428;2023-05-19T09:47:03;102975.88;;;24.56;33.41
46045;BME280;31781;54.094;13.428;2023-05-19T09:49:07;102985.66;;;24.58;32.80
46045;BME280;31781;54.094;13.428;2023-05-19T09:51:09;102982.03;;;24.58;31.50
46045;BME280;31781;54.094;13.428;2023-05-19T09:53:13;102983.38;;;24.55;31.46
46045;BME280;31781;54.094;13.428;2023-05-19T09:55:14;102996.09;;;24.51;31.86
46045;BME280;31781;54.094;13.428;2023-05-19T09:57:16;102986.47;;;24.42;31.12
46045;BME280;31781;54.094;13.428;2023-05-19T09:59:23;102984.66;;;24.36;32.90
46045;BME280;31781;54.094;13.428;2023-05-19T10:01:25;102983.47;;;24.32;31.17
46045;BME280;31781;54.094;13.428;2023-05-19T10:03:27;102985.41;;;24.32;32.11
46045;BME280;31781;54.094;13.428;2023-05-19T10:05:30;102987.94;;;24.33;32.43
46045;BME280;31781;54.094;13.428;2023-05-19T10:07:33;102986.84;;;24.34;31.44
46045;BME280;31781;54.094;13.428;2023-05-19T10:09:35;102987.72;;;24.35;31.45
46045;BME280;31781;54.094;13.428;2023-05-19T10:11:38;102984.44;;;24.38;31.19
46045;BME280;31781;54.094;13.428;2023-05-19T10:13:41;102980.28;;;24.40;31.23
46045;BME280;31781;54.094;13.428;2023-05-19T10:15:45;102982.69;;;24.48;32.18
46045;BME280;31781;54.094;13.428;2023-05-19T10:17:59;102974.19;;;24.55;31.05
46045;BME280;31781;54.094;13.428;2023-05-19T10:20:03;102980.94;;;24.59;30.70
46045;BME280;31781;54.094;13.428;2023-05-19T10:22:05;102971.25;;;24.61;30.84
46045;BME280;31781;54.094;13.428;2023-05-19T10:24:07;102975.22;;;24.65;30.83
46045;BME280;31781;54.094;13.428;2023-05-19T10:26:12;102975.34;;;24.70;30.10
46045;BME280;31781;54.094;13.428;2023-05-19T10:28:17;102973.75;;;24.75;31.11
46045;BME280;31781;54.094;13.428;2023-05-19T10:30:25;102975.50;;;24.81;31.12
46045;BME280;31781;54.094;13.428;2023-05-19T10:32:30;102977.59;;;24.85;30.30
46045;BME280;31781;54.094;13.428;2023-05-19T10:34:55;102976.00;;;24.89;32.80
46045;BME280;31781;54.094;13.428;2023-05-19T10:37:09;102973.94;;;24.85;30.50
46045;BME280;31781;54.094;13.428;2023-05-19T10:39:18;102973.09;;;24.84;31.27